Kingsville, TX (78363)

8:02 PM CDT on July 27, 2016 (GMT -0500)
Ricardo Service Center | | Change Station

Elev 56 ft 27.39 °N, 97.88 °W | Updated 3 seconds ago

Mostly Cloudy
Mostly Cloudy
86.7 °F
Feels Like 96 °F
N
12.0
Wind Variable Wind from ESE
Gusts 20.0 mph

Today
High -- | Low -- °F
--% Chance of Precip.
Yesterday
High -- | Low -- °F
Precip. -- in
Pressure 29.88 in
Visibility 10.0 miles
Clouds Few 3500 ft
Few 8000 ft
Scattered Clouds 18000 ft
Mostly Cloudy 25000 ft
Heat Index 96 °F
Dew Point 75 °F
Humidity 68%
Rainfall 0.00 in
Snow Depth Not available.
6:52 AM 8:23 PM
Last Quarter, 38% visible
METAR KNQI 280056Z 14012KT 10SM FEW035 FEW080 SCT180 BKN250 30/24 A2989 RMK AO2 SLP117 T03000244 $
Pressure 29.88 in
Visibility 10.0 miles
Clouds Few 3500 ft
Few 8000 ft
Scattered Clouds 18000 ft
Mostly Cloudy 25000 ft
Heat Index 96 °F
Dew Point 75 °F
Humidity 68%
Rainfall 0.00 in
Snow Depth Not available.
6:52 AM 8:23 PM
Last Quarter, 38% visible
METAR KNQI 280056Z 14012KT 10SM FEW035 FEW080 SCT180 BKN250 30/24 A2989 RMK AO2 SLP117 T03000244 $

10-Day Weather Forecast

Almanac

Astronomy

Jul. 27, 2016 Rise Set
Actual Time
Civil Twilight
Nautical Twilight
Astronomical Twilight
Moon
Length of Visible Light
Length of Day
Tomorrow will be .
, % of the Moon is Illuminated

Today's Extremes

State Highs State Lows

Community

WunderPhotos

Upload Photos

1,927,987 photos uploaded!

WunderBlog® & News

Nearby

Air Quality

  Air Quality AQ Index Pollutant
Not available.

Snow Depth

Station Depth Elevation

Earthquake Activity

City Distance Mag. Time & Date
Minimum magnitude displayed is 2.5.

Coastal Water Temperatures

Place Temperature

Stations

Nearby Weather Stations

Station Location Temp. Windchill Dew Point Humidity Wind Precip. Elev Updated Type
                   

Watches & Warnings

There are currently no watches in effect.